^^
Saratoga-Weather Station Historical Data
Daily Summary for March 06, 2021 Units:  Metric    English   Both
Daily Weekly Monthly Yearly Custom
  High: Low: Average:
Temperature: 9.1 °C -1.7 °C 3 °C
Dew Point: -3 °C -7 °C -5.1 °C
Humidity: 83% 32% 58%
Wind Speed: 19.5km/h 0km/h 3.4km/h
Wind Gust: 22.5km/h - -
Wind- - ESE
Pressure: 1031.2 hPa 1026.8 hPa -
Precipitation: 0.0 mm    
Historical Graphs
 
 
Tabular Data for March 06, 2021
Time Temperature Dew Point Pressure Wind Wind Speed Wind Gust Humidity Rainfall Rate (Hourly) solar
00:04 0.8 °C -3.1 °C 1030.1 hPa Calm   3.2 km/h 75% 0.0 mm 0 W/m2
00:09 0.7 °C -3 °C 1030.1 hPa Calm     76% 0.0 mm 0 W/m2
00:14 0.7 °C -3 °C 1030.1 hPa NE 1.4 km/h 1.6 km/h 76% 0.0 mm 0 W/m2
00:19 0.6 °C -3.1 °C 1030.1 hPa Calm   3.2 km/h 76% 0.0 mm 0 W/m2
00:24 0.6 °C -3.1 °C 1030.1 hPa North 1.4 km/h 1.6 km/h 76% 0.0 mm 0 W/m2
00:29 0.6 °C -3.1 °C 1030.1 hPa NNE 1.4 km/h 1.6 km/h 76% 0.0 mm 0 W/m2
00:34 0.7 °C -3.2 °C 1030.1 hPa Calm   3.2 km/h 75% 0.0 mm 0 W/m2
00:39 0.7 °C -3.2 °C 1030.1 hPa Calm   3.2 km/h 75% 0.0 mm 0 W/m2
00:44 0.7 °C -3.2 °C 1030.1 hPa Calm   1.6 km/h 75% 0.0 mm 0 W/m2
00:49 0.6 °C -3.3 °C 1030.1 hPa Calm   3.2 km/h 75% 0.0 mm 0 W/m2
00:54 0.5 °C -3.4 °C 1030.1 hPa Calm   1.6 km/h 75% 0.0 mm 0 W/m2
00:59 0.4 °C -3.5 °C 1030.1 hPa NNE 1.4 km/h 1.6 km/h 75% 0.0 mm 0 W/m2
01:04 0.3 °C -3.6 °C 1030.1 hPa East 1.4 km/h 1.6 km/h 75% 0.0 mm 0 W/m2
01:09 0.2 °C -3.5 °C 1030.1 hPa ENE 1.4 km/h 3.2 km/h 76% 0.0 mm 0 W/m2
01:14 0.2 °C -3.5 °C 1030.1 hPa Calm     76% 0.0 mm 0 W/m2
01:19 0.1 °C -3.6 °C 1030.1 hPa Calm     76% 0.0 mm 0 W/m2
01:24 0 °C -3.7 °C 1030.1 hPa ENE 1.4 km/h 3.2 km/h 76% 0.0 mm 0 W/m2
01:29 -0.1 °C -3.6 °C 1030.1 hPa Calm     77% 0.0 mm 0 W/m2
01:34 -0.2 °C -3.7 °C 1030.1 hPa Calm   1.6 km/h 77% 0.0 mm 0 W/m2
01:39 -0.3 °C -3.8 °C 1030.1 hPa Calm   1.6 km/h 77% 0.0 mm 0 W/m2
01:44 -0.4 °C -3.8 °C 1030.1 hPa East 3.2 km/h 6.4 km/h 78% 0.0 mm 0 W/m2
01:50 -0.4 °C -3.8 °C 1030.1 hPa East 1.4 km/h 3.2 km/h 78% 0.0 mm 0 W/m2
01:55 -0.3 °C -3.7 °C 1030.1 hPa Calm   4.8 km/h 78% 0.0 mm 0 W/m2
02:00 -0.4 °C -3.8 °C 1030.1 hPa ESE 1.4 km/h 3.2 km/h 78% 0.0 mm 0 W/m2
02:05 -0.4 °C -3.8 °C 1030.1 hPa Calm   1.6 km/h 78% 0.0 mm 0 W/m2
02:10 -0.6 °C -4 °C 1030.1 hPa Calm     78% 0.0 mm 0 W/m2
02:15 -0.7 °C -3.9 °C 1030.1 hPa Calm   3.2 km/h 79% 0.0 mm 0 W/m2
02:20 -0.8 °C -4 °C 1030.1 hPa Calm   3.2 km/h 79% 0.0 mm 0 W/m2
02:25 -0.9 °C -3.9 °C 1030.1 hPa Calm   1.6 km/h 80% 0.0 mm 0 W/m2
02:30 -1 °C -4 °C 1030.1 hPa Calm   1.6 km/h 80% 0.0 mm 0 W/m2
02:35 -1.1 °C -4.1 °C 1030.1 hPa Calm     80% 0.0 mm 0 W/m2
02:40 -1.1 °C -3.9 °C 1030.1 hPa South 1.4 km/h 1.6 km/h 81% 0.0 mm 0 W/m2
02:45 -1.1 °C -3.9 °C 1030.1 hPa Calm   1.6 km/h 81% 0.0 mm 0 W/m2
02:50 -1.2 °C -4 °C 1030.1 hPa Calm   1.6 km/h 81% 0.0 mm 0 W/m2
02:55 -1.3 °C -4.1 °C 1030.1 hPa Calm   1.6 km/h 81% 0.0 mm 0 W/m2
03:00 -1.3 °C -4 °C 1030.1 hPa Calm   1.6 km/h 82% 0.0 mm 0 W/m2
03:05 -1.4 °C -4.1 °C 1030.1 hPa South 1.4 km/h 3.2 km/h 82% 0.0 mm 0 W/m2
03:10 -1.4 °C -4.1 °C 1030.1 hPa Calm   1.6 km/h 82% 0.0 mm 0 W/m2
03:15 -1.6 °C -4.3 °C 1030.1 hPa Calm   1.6 km/h 82% 0.0 mm 0 W/m2
03:20 -1.7 °C -4.2 °C 1030.1 hPa South 1.4 km/h 3.2 km/h 83% 0.0 mm 0 W/m2
03:25 -1.7 °C -4.2 °C 1030.1 hPa Calm   1.6 km/h 83% 0.0 mm 0 W/m2
03:30 -1.7 °C -4.2 °C 1030.1 hPa South 1.4 km/h 1.6 km/h 83% 0.0 mm 0 W/m2
03:35 -1.6 °C -4.1 °C 1030.1 hPa Calm   3.2 km/h 83% 0.0 mm 0 W/m2
03:40 -1.6 °C -4.3 °C 1030.1 hPa Calm     82% 0.0 mm 0 W/m2
03:45 -1.6 °C -4.3 °C 1030.1 hPa Calm   1.6 km/h 82% 0.0 mm 0 W/m2
03:50 -1.6 °C -4.3 °C 1030.1 hPa Calm   3.2 km/h 82% 0.0 mm 0 W/m2
03:55 -1.6 °C -4.3 °C 1030.1 hPa South 1.4 km/h 1.6 km/h 82% 0.0 mm 0 W/m2
04:00 -1.4 °C -4.1 °C 1030.1 hPa South 1.4 km/h 3.2 km/h 82% 0.0 mm 0 W/m2
04:05 -1.5 °C -4.2 °C 1030.1 hPa South 1.4 km/h 1.6 km/h 82% 0.0 mm 0 W/m2
04:10 -1.5 °C -4.2 °C 1030.1 hPa Calm   1.6 km/h 82% 0.0 mm 0 W/m2
04:15 -1.6 °C -4.3 °C 1030.1 hPa Calm     82% 0.0 mm 0 W/m2
04:20 -1.7 °C -4.4 °C 1030.1 hPa SSW 3.2 km/h 3.2 km/h 82% 0.0 mm 0 W/m2
04:25 -1.6 °C -4.3 °C 1030.1 hPa West 1.4 km/h 1.6 km/h 82% 0.0 mm 0 W/m2
04:30 -1.6 °C -4.3 °C 1030.1 hPa Calm   1.6 km/h 82% 0.0 mm 0 W/m2
04:35 -1.6 °C -4.3 °C 1030.1 hPa West 1.4 km/h 3.2 km/h 82% 0.0 mm 0 W/m2
04:40 -1.6 °C -4.3 °C 1030.1 hPa West 1.4 km/h 3.2 km/h 82% 0.0 mm 0 W/m2
04:45 -1.6 °C -4.3 °C 1030.1 hPa West 1.4 km/h 3.2 km/h 82% 0.0 mm 0 W/m2
04:50 -1.6 °C -4.3 °C 1030.1 hPa Calm   3.2 km/h 82% 0.0 mm 0 W/m2
04:55 -1.7 °C -4.4 °C 1030.1 hPa Calm   1.6 km/h 82% 0.0 mm 0 W/m2
05:00 -1.7 °C -4.2 °C 1030.1 hPa Calm   1.6 km/h 83% 0.0 mm 0 W/m2
05:05 -1.6 °C -4.3 °C 1030.1 hPa WNW 1.4 km/h 6.4 km/h 82% 0.0 mm 0 W/m2
05:10 -1.3 °C -4.1 °C 1030.1 hPa Calm   1.6 km/h 81% 0.0 mm 0 W/m2
05:15 -1.2 °C -4.2 °C 1030.1 hPa Calm   6.4 km/h 80% 0.0 mm 0 W/m2
05:20 -1.1 °C -4.3 °C 1030.1 hPa Calm   4.8 km/h 79% 0.0 mm 0 W/m2
05:25 -1 °C -4.2 °C 1030.1 hPa Calm   4.8 km/h 79% 0.0 mm 0 W/m2
05:30 -0.9 °C -4.3 °C 1030.5 hPa WNW 3.2 km/h 4.8 km/h 78% 0.0 mm 0 W/m2
05:35 -0.9 °C -4.4 °C 1030.5 hPa WNW 1.4 km/h 3.2 km/h 77% 0.0 mm 0 W/m2
05:40 -0.9 °C -4.4 °C 1030.5 hPa Calm     77% 0.0 mm 0 W/m2
05:45 -0.9 °C -4.4 °C 1030.5 hPa NNE 1.4 km/h 3.2 km/h 77% 0.0 mm 0 W/m2
05:50 -1 °C -4.5 °C 1030.5 hPa SSE 1.4 km/h 1.6 km/h 77% 0.0 mm 0 W/m2
05:55 -1.1 °C -4.6 °C 1030.5 hPa NE 1.4 km/h 6.4 km/h 77% 0.0 mm 0 W/m2
06:00 -1 °C -4.7 °C 1030.5 hPa East 1.4 km/h 3.2 km/h 76% 0.0 mm 0 W/m2
06:05 -0.9 °C -4.6 °C 1030.5 hPa ENE 1.4 km/h 3.2 km/h 76% 0.0 mm 0 W/m2
06:10 -1 °C -4.7 °C 1030.5 hPa Calm   3.2 km/h 76% 0.0 mm 0 W/m2
06:15 -1 °C -4.7 °C 1030.5 hPa East 3.2 km/h 3.2 km/h 76% 0.0 mm 0 W/m2
06:20 -1 °C -4.7 °C 1030.5 hPa Calm   3.2 km/h 76% 0.0 mm 0 W/m2
06:25 -1.1 °C -4.8 °C 1030.5 hPa SE 1.4 km/h 6.4 km/h 76% 0.0 mm 0 W/m2
06:30 -1.1 °C -4.8 °C 1030.1 hPa Calm   6.4 km/h 76% 0.0 mm 0 W/m2
06:35 -1.1 °C -4.8 °C 1030.1 hPa SSW 1.4 km/h 3.2 km/h 76% 0.0 mm 0 W/m2
06:40 -1.2 °C -4.9 °C 1030.1 hPa East 1.4 km/h 4.8 km/h 76% 0.0 mm 0 W/m2
06:45 -1.1 °C -4.8 °C 1030.1 hPa ESE 3.2 km/h 3.2 km/h 76% 0.0 mm 0 W/m2
06:50 -1.2 °C -4.9 °C 1030.5 hPa Calm   3.2 km/h 76% 0.0 mm 0 W/m2
06:55 -1.2 °C -4.9 °C 1030.1 hPa Calm     76% 0.0 mm 0 W/m2
07:01 -1.3 °C -5 °C 1030.1 hPa Calm     76% 0.0 mm 0 W/m2
07:06 -1.4 °C -5.1 °C 1030.5 hPa Calm   1.6 km/h 76% 0.0 mm 0 W/m2
07:11 -1.4 °C -5.1 °C 1030.5 hPa NNE 1.4 km/h 1.6 km/h 76% 0.0 mm 5 W/m2
07:16 -1.4 °C -5.1 °C 1030.5 hPa Calm   6.4 km/h 76% 0.0 mm 7 W/m2
07:21 -1.3 °C -5 °C 1030.5 hPa Calm   4.8 km/h 76% 0.0 mm 9 W/m2
07:26 -1.3 °C -5.2 °C 1030.5 hPa NE 3.2 km/h 3.2 km/h 75% 0.0 mm 11 W/m2
07:31 -1.3 °C -5.2 °C 1030.5 hPa NE 1.4 km/h 3.2 km/h 75% 0.0 mm 11 W/m2
07:36 -1.3 °C -5.2 °C 1030.5 hPa ENE 4.7 km/h 6.4 km/h 75% 0.0 mm 12 W/m2
07:41 -1.2 °C -5.1 °C 1030.8 hPa East 1.4 km/h 6.4 km/h 75% 0.0 mm 14 W/m2
07:46 -1.1 °C -5.1 °C 1030.8 hPa ENE 1.4 km/h 4.8 km/h 74% 0.0 mm 16 W/m2
07:51 -1 °C -5 °C 1030.8 hPa East 1.4 km/h 4.8 km/h 74% 0.0 mm 16 W/m2
07:56 -0.9 °C -4.9 °C 1030.8 hPa ENE 1.4 km/h 6.4 km/h 74% 0.0 mm 18 W/m2
08:01 -0.8 °C -5 °C 1030.8 hPa SE 7.9 km/h 8 km/h 73% 0.0 mm 19 W/m2
08:06 -0.7 °C -5.1 °C 1030.8 hPa ESE 4.7 km/h 8 km/h 72% 0.0 mm 19 W/m2
08:11 -0.5 °C -4.9 °C 1030.8 hPa Calm   3.2 km/h 72% 0.0 mm 26 W/m2
08:16 -0.4 °C -5 °C 1030.8 hPa ENE 7.9 km/h 9.7 km/h 71% 0.0 mm 33 W/m2
08:21 -0.3 °C -4.9 °C 1030.8 hPa ENE 1.4 km/h 3.2 km/h 71% 0.0 mm 35 W/m2
08:26 -0.2 °C -4.8 °C 1030.8 hPa ESE 9.7 km/h 9.7 km/h 71% 0.0 mm 39 W/m2
08:31 -0.1 °C -4.9 °C 1031.2 hPa East 3.2 km/h 4.8 km/h 70% 0.0 mm 39 W/m2
08:36 0 °C -4.8 °C 1031.2 hPa SE 1.4 km/h 6.4 km/h 70% 0.0 mm 35 W/m2
08:41 0.1 °C -4.9 °C 1031.2 hPa North 1.4 km/h 6.4 km/h 69% 0.0 mm 91 W/m2
08:46 0.3 °C -4.7 °C 1031.2 hPa East 1.4 km/h 3.2 km/h 69% 0.0 mm 193 W/m2
08:51 0.4 °C -4.6 °C 1031.2 hPa ENE 4.7 km/h 6.4 km/h 69% 0.0 mm 207 W/m2
08:56 0.7 °C -4.5 °C 1031.2 hPa NNE 1.4 km/h 4.8 km/h 68% 0.0 mm 223 W/m2
09:01 0.8 °C -4.6 °C 1031.2 hPa ESE 4.7 km/h 6.4 km/h 67% 0.0 mm 241 W/m2
09:06 1.1 °C -4.5 °C 1031.2 hPa SE 6.4 km/h 12.9 km/h 66% 0.0 mm 253 W/m2
09:11 1.3 °C -4.4 °C 1031.2 hPa NNE 4.7 km/h 6.4 km/h 66% 0.0 mm 269 W/m2
09:16 1.5 °C -4.4 °C 1031.2 hPa ESE 3.2 km/h 12.9 km/h 65% 0.0 mm 265 W/m2
09:21 1.8 °C -4.3 °C 1031.2 hPa NE 1.4 km/h 8 km/h 64% 0.0 mm 292 W/m2
09:26 2.1 °C -4.2 °C 1031.2 hPa ENE 4.7 km/h 12.9 km/h 63% 0.0 mm 308 W/m2
09:31 2.2 °C -4.3 °C 1031.2 hPa ENE 1.4 km/h 6.4 km/h 62% 0.0 mm 308 W/m2
09:36 2.3 °C -4.2 °C 1031.2 hPa SE 6.4 km/h 11.3 km/h 62% 0.0 mm 313 W/m2
09:41 2.4 °C -4.4 °C 1031.2 hPa East 4.7 km/h 11.3 km/h 61% 0.0 mm 345 W/m2
09:46 2.6 °C -4.4 °C 1031.2 hPa NE 1.4 km/h 16.1 km/h 60% 0.0 mm 355 W/m2
09:51 2.6 °C -4.4 °C 1031.2 hPa NE 6.4 km/h 14.5 km/h 60% 0.0 mm 366 W/m2
09:56 2.8 °C -4 °C 1031.2 hPa NE 7.9 km/h 16.1 km/h 61% 0.0 mm 380 W/m2
10:01 3.1 °C -4.1 °C 1031.2 hPa NE 7.9 km/h 8 km/h 59% 0.0 mm 392 W/m2
10:06 3.3 °C -4.2 °C 1031.2 hPa East 3.2 km/h 16.1 km/h 58% 0.0 mm 403 W/m2
10:11 3.7 °C -4.5 °C 1031.2 hPa SE 11.1 km/h 16.1 km/h 55% 0.0 mm 415 W/m2
10:16 3.8 °C -5.2 °C 1031.2 hPa ESE 4.7 km/h 14.5 km/h 52% 0.0 mm 424 W/m2
10:21 4.1 °C -4.9 °C 1031.2 hPa ENE 3.2 km/h 14.5 km/h 52% 0.0 mm 434 W/m2
10:26 4.3 °C -5.2 °C 1031.2 hPa ESE 13 km/h 12.9 km/h 50% 0.0 mm 446 W/m2
10:31 4.4 °C -5.4 °C 1031.2 hPa SE 7.9 km/h 17.7 km/h 49% 0.0 mm 454 W/m2
10:36 4.6 °C -5.2 °C 1031.2 hPa East 4.7 km/h 9.7 km/h 49% 0.0 mm 462 W/m2
10:41 4.8 °C -5 °C 1031.2 hPa ESE 11.1 km/h 19.3 km/h 49% 0.0 mm 473 W/m2
10:46 5 °C -5.1 °C 1031.2 hPa East 14.3 km/h 14.5 km/h 48% 0.0 mm 482 W/m2
10:51 5.1 °C -5.9 °C 1030.8 hPa East 19.5 km/h 20.9 km/h 45% 0.0 mm 473 W/m2
10:56 5.1 °C -5.6 °C 1030.8 hPa East 4.7 km/h 6.4 km/h 46% 0.0 mm 473 W/m2
11:01 5.2 °C -6.1 °C 1031.2 hPa East 6.4 km/h 22.5 km/h 44% 0.0 mm 483 W/m2
11:06 5.2 °C -6.1 °C 1030.8 hPa East 7.9 km/h 16.1 km/h 44% 0.0 mm 475 W/m2
11:11 5.3 °C -6.3 °C 1030.8 hPa East 11.1 km/h 20.9 km/h 43% 0.0 mm 480 W/m2
11:16 5.5 °C -6.1 °C 1030.8 hPa NW 7.9 km/h 22.5 km/h 43% 0.0 mm 475 W/m2
11:21 5.7 °C -6.2 °C 1030.8 hPa SE 6.4 km/h 22.5 km/h 42% 0.0 mm 480 W/m2
11:26 5.8 °C -6.1 °C 1030.8 hPa East 3.2 km/h 14.5 km/h 42% 0.0 mm 469 W/m2
11:31 5.9 °C -5.7 °C 1030.8 hPa East 1.4 km/h 22.5 km/h 43% 0.0 mm 418 W/m2
11:36 6.2 °C -5.5 °C 1030.8 hPa South 9.7 km/h 12.9 km/h 43% 0.0 mm 394 W/m2
11:41 6.3 °C -5.7 °C 1030.8 hPa NNE 4.7 km/h 16.1 km/h 42% 0.0 mm 425 W/m2
11:46 6.4 °C -6.2 °C 1030.8 hPa ENE 7.9 km/h 19.3 km/h 40% 0.0 mm 446 W/m2
11:51 6.4 °C -5.9 °C 1030.5 hPa East 14.3 km/h 14.5 km/h 41% 0.0 mm 410 W/m2
11:56 6.4 °C -6.2 °C 1030.5 hPa ESE 9.7 km/h 16.1 km/h 40% 0.0 mm 473 W/m2
12:01 6.4 °C -5.9 °C 1030.8 hPa East 4.7 km/h 19.3 km/h 41% 0.0 mm 515 W/m2
12:06 6.3 °C -6 °C 1030.5 hPa NE 6.4 km/h 17.7 km/h 41% 0.0 mm 540 W/m2
12:11 6.3 °C -6 °C 1030.5 hPa ENE 3.2 km/h 19.3 km/h 41% 0.0 mm 566 W/m2
12:16 6.5 °C -6.1 °C 1030.5 hPa East 7.9 km/h 22.5 km/h 40% 0.0 mm 582 W/m2
12:21 6.7 °C -5.6 °C 1030.5 hPa ESE 9.7 km/h 12.9 km/h 41% 0.0 mm 585 W/m2
12:26 6.8 °C -5.9 °C 1030.5 hPa East 6.4 km/h 19.3 km/h 40% 0.0 mm 589 W/m2
12:31 6.8 °C -5.9 °C 1030.5 hPa ENE 4.7 km/h 14.5 km/h 40% 0.0 mm 591 W/m2
12:36 6.8 °C -5.9 °C 1030.5 hPa ENE 6.4 km/h 16.1 km/h 40% 0.0 mm 589 W/m2
12:41 7 °C -5.7 °C 1030.5 hPa ESE 3.2 km/h 14.5 km/h 40% 0.0 mm 591 W/m2
12:46 7.1 °C -5.9 °C 1030.5 hPa ESE 6.4 km/h 12.9 km/h 39% 0.0 mm 596 W/m2
12:52 7.1 °C -5.6 °C 1030.1 hPa SE 4.7 km/h 16.1 km/h 40% 0.0 mm 596 W/m2
12:57 7.2 °C -5.2 °C 1030.1 hPa ESE 4.7 km/h 11.3 km/h 41% 0.0 mm 596 W/m2
13:02 7.3 °C -5.4 °C 1030.1 hPa ESE 9.7 km/h 16.1 km/h 40% 0.0 mm 598 W/m2
13:07 7.3 °C -5.7 °C 1030.1 hPa ESE 7.9 km/h 14.5 km/h 39% 0.0 mm 596 W/m2
13:12 7.3 °C -5.7 °C 1030.1 hPa ESE 4.7 km/h 20.9 km/h 39% 0.0 mm 598 W/m2
13:17 7.3 °C -6.1 °C 1029.8 hPa ENE 4.7 km/h 11.3 km/h 38% 0.0 mm 577 W/m2
13:22 7.4 °C -5.7 °C 1029.8 hPa ENE 14.3 km/h 20.9 km/h 39% 0.0 mm 334 W/m2
13:27 7.3 °C -5.4 °C 1029.8 hPa ESE 1.4 km/h 12.9 km/h 40% 0.0 mm 309 W/m2
13:32 7.4 °C -5.7 °C 1029.8 hPa SE 3.2 km/h 14.5 km/h 39% 0.0 mm 283 W/m2
13:37 7.6 °C -6.2 °C 1029.8 hPa ENE 7.9 km/h 9.7 km/h 37% 0.0 mm 299 W/m2
13:42 7.6 °C -5.8 °C 1029.8 hPa ENE 6.4 km/h 14.5 km/h 38% 0.0 mm 227 W/m2
13:47 7.6 °C -5.5 °C 1029.5 hPa ESE 13 km/h 12.9 km/h 39% 0.0 mm 202 W/m2
13:52 7.6 °C -5.8 °C 1029.5 hPa East 6.4 km/h 17.7 km/h 38% 0.0 mm 229 W/m2
13:57 7.6 °C -5.5 °C 1029.5 hPa East 7.9 km/h 16.1 km/h 39% 0.0 mm 186 W/m2
14:02 7.8 °C -5.6 °C 1029.5 hPa NNE 9.7 km/h 17.7 km/h 38% 0.0 mm 223 W/m2
14:07 7.8 °C -6 °C 1029.5 hPa NNE 14.3 km/h 16.1 km/h 37% 0.0 mm 229 W/m2
14:12 7.8 °C -5.6 °C 1029.5 hPa ENE 4.7 km/h 12.9 km/h 38% 0.0 mm 213 W/m2
14:17 7.8 °C -5.6 °C 1029.5 hPa East 6.4 km/h 12.9 km/h 38% 0.0 mm 241 W/m2
14:22 7.8 °C -5.6 °C 1029.5 hPa ESE 6.4 km/h 16.1 km/h 38% 0.0 mm 399 W/m2
14:27 7.9 °C -6.3 °C 1029.1 hPa NE 4.7 km/h 14.5 km/h 36% 0.0 mm 540 W/m2
14:32 8.2 °C -6 °C 1029.1 hPa East 3.2 km/h 6.4 km/h 36% 0.0 mm 533 W/m2
14:37 8.3 °C -5.5 °C 1029.1 hPa NE 3.2 km/h 12.9 km/h 37% 0.0 mm 526 W/m2
14:42 8.5 °C -5.4 °C 1029.1 hPa NNW 6.4 km/h 9.7 km/h 37% 0.0 mm 519 W/m2
14:47 8.6 °C -6 °C 1029.1 hPa ENE 16.3 km/h 16.1 km/h 35% 0.0 mm 513 W/m2
14:52 8.5 °C -5.4 °C 1028.8 hPa ESE 6.4 km/h 12.9 km/h 37% 0.0 mm 503 W/m2
14:57 8.5 °C -5.4 °C 1028.8 hPa East 11.1 km/h 16.1 km/h 37% 0.0 mm 496 W/m2
15:02 8.6 °C -5.6 °C 1028.8 hPa ENE 3.2 km/h 9.7 km/h 36% 0.0 mm 490 W/m2
15:07 8.7 °C -6.3 °C 1028.5 hPa NE 7.9 km/h 16.1 km/h 34% 0.0 mm 480 W/m2
15:12 8.7 °C -5.9 °C 1028.5 hPa SE 6.4 km/h 12.9 km/h 35% 0.0 mm 471 W/m2
15:17 8.7 °C -6.3 °C 1028.5 hPa ENE 6.4 km/h 16.1 km/h 34% 0.0 mm 464 W/m2
15:22 8.8 °C -5.8 °C 1028.5 hPa NE 16.3 km/h 17.7 km/h 35% 0.0 mm 454 W/m2
15:27 8.8 °C -6.2 °C 1028.5 hPa ESE 3.2 km/h 14.5 km/h 34% 0.0 mm 443 W/m2
15:32 8.9 °C -5.7 °C 1028.1 hPa ESE 3.2 km/h 8 km/h 35% 0.0 mm 434 W/m2
15:37 9.1 °C -6.3 °C 1028.5 hPa East 3.2 km/h 11.3 km/h 33% 0.0 mm 422 W/m2
15:42 9.1 °C -5.9 °C 1028.1 hPa ESE 4.7 km/h 16.1 km/h 34% 0.0 mm 411 W/m2
15:47 9 °C -6.4 °C 1028.1 hPa ESE 6.4 km/h 16.1 km/h 33% 0.0 mm 399 W/m2
15:52 8.9 °C -6.5 °C 1028.5 hPa SSE 1.4 km/h 19.3 km/h 33% 0.0 mm 387 W/m2
15:57 8.8 °C -6.6 °C 1028.1 hPa ENE 7.9 km/h 14.5 km/h 33% 0.0 mm 378 W/m2
16:02 8.8 °C -7 °C 1028.1 hPa NNE 3.2 km/h 16.1 km/h 32% 0.0 mm 369 W/m2
16:07 8.8 °C -6.6 °C 1028.1 hPa East 6.4 km/h 8 km/h 33% 0.0 mm 353 W/m2
16:12 8.8 °C -7 °C 1027.8 hPa East 3.2 km/h 14.5 km/h 32% 0.0 mm 343 W/m2
16:17 8.9 °C -6.5 °C 1027.8 hPa ESE 4.7 km/h 8 km/h 33% 0.0 mm 332 W/m2
16:22 8.9 °C -6.1 °C 1027.8 hPa ESE 4.7 km/h 9.7 km/h 34% 0.0 mm 316 W/m2
16:27 8.8 °C -5.8 °C 1027.8 hPa NNE 9.7 km/h 12.9 km/h 35% 0.0 mm 304 W/m2
16:32 8.7 °C -6.3 °C 1027.8 hPa ENE 4.7 km/h 9.7 km/h 34% 0.0 mm 292 W/m2
16:37 8.7 °C -6.3 °C 1027.8 hPa ENE 6.4 km/h 9.7 km/h 34% 0.0 mm 250 W/m2
16:42 8.7 °C -6.3 °C 1027.4 hPa NNE 9.7 km/h 9.7 km/h 34% 0.0 mm 227 W/m2
16:47 8.7 °C -6.3 °C 1027.4 hPa ESE 4.7 km/h 17.7 km/h 34% 0.0 mm 218 W/m2
16:52 8.4 °C -7 °C 1027.4 hPa ESE 6.4 km/h 12.9 km/h 33% 0.0 mm 223 W/m2
16:57 8.3 °C -6.3 °C 1027.4 hPa ESE 7.9 km/h 9.7 km/h 35% 0.0 mm 169 W/m2
17:02 8.2 °C -6.4 °C 1027.4 hPa ESE 4.7 km/h 12.9 km/h 35% 0.0 mm 185 W/m2
17:07 8.2 °C -6.4 °C 1027.4 hPa ENE 4.7 km/h 9.7 km/h 35% 0.0 mm 167 W/m2
17:12 8.2 °C -5.6 °C 1027.4 hPa NE 14.5 km/h 14.5 km/h 37% 0.0 mm 83 W/m2
17:17 8 °C -5.8 °C 1027.4 hPa East 4.7 km/h 9.7 km/h 37% 0.0 mm 25 W/m2
17:22 7.8 °C -6.4 °C 1027.4 hPa ESE 3.2 km/h 11.3 km/h 36% 0.0 mm 23 W/m2
17:27 7.5 °C -6.3 °C 1027.4 hPa ESE 1.4 km/h 9.7 km/h 37% 0.0 mm 21 W/m2
17:32 7.3 °C -6.1 °C 1027.4 hPa ESE 3.2 km/h 9.7 km/h 38% 0.0 mm 21 W/m2
17:37 7.1 °C -6.3 °C 1027.4 hPa ESE 4.7 km/h 14.5 km/h 38% 0.0 mm 19 W/m2
17:42 6.9 °C -6.1 °C 1027.4 hPa ESE 3.2 km/h 11.3 km/h 39% 0.0 mm 18 W/m2
17:47 6.8 °C -6.2 °C 1027.4 hPa ENE 6.4 km/h 14.5 km/h 39% 0.0 mm 18 W/m2
17:52 6.8 °C -5.9 °C 1027.4 hPa NNE 6.4 km/h 6.4 km/h 40% 0.0 mm 16 W/m2
17:57 6.8 °C -5.9 °C 1027.4 hPa East 1.4 km/h 9.7 km/h 40% 0.0 mm 14 W/m2
18:02 6.7 °C -6 °C 1027.4 hPa ESE 3.2 km/h 14.5 km/h 40% 0.0 mm 12 W/m2
18:07 6.6 °C -5.7 °C 1027.4 hPa ENE 1.4 km/h 8 km/h 41% 0.0 mm 12 W/m2
18:12 6.5 °C -5.8 °C 1027.4 hPa ESE 1.4 km/h 9.7 km/h 41% 0.0 mm 11 W/m2
18:17 6.4 °C -5.9 °C 1027.4 hPa East 14.3 km/h 14.5 km/h 41% 0.0 mm 9 W/m2
18:22 6.4 °C -5.6 °C 1027.4 hPa ESE 3.2 km/h 8 km/h 42% 0.0 mm 7 W/m2
18:27 6.3 °C -5.4 °C 1027.4 hPa ENE 7.9 km/h 11.3 km/h 43% 0.0 mm 5 W/m2
18:32 6.2 °C -5.5 °C 1027.8 hPa East 3.2 km/h 8 km/h 43% 0.0 mm 0 W/m2
18:37 6 °C -5.6 °C 1027.8 hPa East 3.2 km/h 4.8 km/h 43% 0.0 mm 0 W/m2
18:42 5.8 °C -5.2 °C 1027.8 hPa East 1.4 km/h 1.6 km/h 45% 0.0 mm 0 W/m2
18:47 5.6 °C -5.4 °C 1027.8 hPa Calm   3.2 km/h 45% 0.0 mm 0 W/m2
18:52 5.4 °C -5.6 °C 1027.8 hPa East 1.4 km/h 4.8 km/h 45% 0.0 mm 0 W/m2
18:57 5.2 °C -5.5 °C 1027.8 hPa Calm   4.8 km/h 46% 0.0 mm 0 W/m2
19:02 5.1 °C -5 °C 1027.8 hPa East 1.4 km/h 3.2 km/h 48% 0.0 mm 0 W/m2
19:07 4.9 °C -5.2 °C 1027.8 hPa East 4.7 km/h 6.4 km/h 48% 0.0 mm 0 W/m2
19:12 4.9 °C -5.2 °C 1027.8 hPa ESE 1.4 km/h 1.6 km/h 48% 0.0 mm 0 W/m2
19:17 4.9 °C -5.2 °C 1027.8 hPa East 4.7 km/h 9.7 km/h 48% 0.0 mm 0 W/m2
19:22 5 °C -5.1 °C 1027.8 hPa East 3.2 km/h 8 km/h 48% 0.0 mm 0 W/m2
19:27 4.9 °C -5.2 °C 1027.8 hPa ESE 1.4 km/h 4.8 km/h 48% 0.0 mm 0 W/m2
19:32 4.9 °C -5.2 °C 1027.8 hPa ESE 4.7 km/h 14.5 km/h 48% 0.0 mm 0 W/m2
19:37 4.9 °C -5.2 °C 1027.8 hPa Calm   4.8 km/h 48% 0.0 mm 0 W/m2
19:42 4.7 °C -5.7 °C 1027.8 hPa East 4.7 km/h 11.3 km/h 47% 0.0 mm 0 W/m2
19:47 4.7 °C -5.7 °C 1027.8 hPa SE 3.2 km/h 6.4 km/h 47% 0.0 mm 0 W/m2
19:52 4.8 °C -5.6 °C 1027.8 hPa ESE 9.7 km/h 9.7 km/h 47% 0.0 mm 0 W/m2
19:57 4.7 °C -5.7 °C 1027.8 hPa SE 3.2 km/h 6.4 km/h 47% 0.0 mm 0 W/m2
20:02 4.6 °C -5.7 °C 1027.8 hPa East 6.4 km/h 11.3 km/h 47% 0.0 mm 0 W/m2
20:07 4.6 °C -5.7 °C 1027.8 hPa NE 6.4 km/h 11.3 km/h 47% 0.0 mm 0 W/m2
20:12 4.4 °C -5.7 °C 1027.8 hPa Calm   9.7 km/h 48% 0.0 mm 0 W/m2
20:17 4.4 °C -5.7 °C 1027.8 hPa SE 1.4 km/h 4.8 km/h 48% 0.0 mm 0 W/m2
20:22 4.3 °C -5.7 °C 1027.8 hPa East 4.7 km/h 6.4 km/h 48% 0.0 mm 0 W/m2
20:27 4.2 °C -5.8 °C 1027.8 hPa ESE 3.2 km/h 11.3 km/h 48% 0.0 mm 0 W/m2
20:32 4.1 °C -5.7 °C 1027.8 hPa East 6.4 km/h 11.3 km/h 49% 0.0 mm 0 W/m2
20:37 4.1 °C -5.7 °C 1027.8 hPa ENE 3.2 km/h 8 km/h 49% 0.0 mm 0 W/m2
20:42 4 °C -5.5 °C 1027.4 hPa SE 4.7 km/h 11.3 km/h 50% 0.0 mm 0 W/m2
20:47 3.8 °C -5.7 °C 1027.8 hPa ESE 3.2 km/h 9.7 km/h 50% 0.0 mm 0 W/m2
20:52 3.7 °C -5.2 °C 1027.4 hPa ENE 1.4 km/h 3.2 km/h 52% 0.0 mm 0 W/m2
20:57 3.6 °C -5.3 °C 1027.8 hPa East 1.4 km/h 9.7 km/h 52% 0.0 mm 0 W/m2
21:02 3.4 °C -5.5 °C 1027.8 hPa East 1.4 km/h 4.8 km/h 52% 0.0 mm 0 W/m2
21:07 3.3 °C -5.9 °C 1027.8 hPa SE 3.2 km/h 4.8 km/h 51% 0.0 mm 0 W/m2
21:12 3.3 °C -5.4 °C 1027.8 hPa ESE 1.4 km/h 1.6 km/h 53% 0.0 mm 0 W/m2
21:17 3.2 °C -5.5 °C 1027.8 hPa SE 1.4 km/h 3.2 km/h 53% 0.0 mm 0 W/m2
21:22 3 °C -5.6 °C 1027.8 hPa Calm   3.2 km/h 53% 0.0 mm 0 W/m2
21:27 2.8 °C -5.3 °C 1027.8 hPa Calm   1.6 km/h 55% 0.0 mm 0 W/m2
21:32 2.7 °C -5.7 °C 1027.8 hPa NNE 1.4 km/h 1.6 km/h 54% 0.0 mm 0 W/m2
21:37 2.6 °C -5.3 °C 1027.8 hPa NNE 1.4 km/h 1.6 km/h 56% 0.0 mm 0 W/m2
21:42 2.4 °C -5.7 °C 1027.8 hPa Calm   1.6 km/h 55% 0.0 mm 0 W/m2
21:47 2.3 °C -5.8 °C 1027.8 hPa ESE 1.4 km/h 4.8 km/h 55% 0.0 mm 0 W/m2
21:52 2.2 °C -5.7 °C 1027.8 hPa Calm   1.6 km/h 56% 0.0 mm 0 W/m2
21:57 2.1 °C -5.8 °C 1027.8 hPa ESE 1.4 km/h 4.8 km/h 56% 0.0 mm 0 W/m2
22:02 1.9 °C -5.5 °C 1027.8 hPa Calm   1.6 km/h 58% 0.0 mm 0 W/m2
22:07 1.7 °C -5.2 °C 1027.8 hPa ESE 1.4 km/h 3.2 km/h 60% 0.0 mm 0 W/m2
22:12 1.6 °C -5.8 °C 1027.4 hPa SE 1.4 km/h 1.6 km/h 58% 0.0 mm 0 W/m2
22:17 1.6 °C -5.8 °C 1027.4 hPa ESE 3.2 km/h 3.2 km/h 58% 0.0 mm 0 W/m2
22:22 1.6 °C -5.6 °C 1027.4 hPa Calm   1.6 km/h 59% 0.0 mm 0 W/m2
22:27 1.6 °C -5.8 °C 1027.4 hPa ESE 1.4 km/h 3.2 km/h 58% 0.0 mm 0 W/m2
22:32 1.4 °C -5.7 °C 1027.4 hPa ESE 1.4 km/h 1.6 km/h 59% 0.0 mm 0 W/m2
22:37 1.3 °C -5.4 °C 1027.4 hPa ESE 1.4 km/h 3.2 km/h 61% 0.0 mm 0 W/m2
22:42 1.2 °C -5.5 °C 1027.4 hPa ESE 1.4 km/h 3.2 km/h 61% 0.0 mm 0 W/m2
22:47 1 °C -5.7 °C 1027.4 hPa ESE 1.4 km/h 3.2 km/h 61% 0.0 mm 0 W/m2
22:52 0.9 °C -5.6 °C 1027.4 hPa Calm   1.6 km/h 62% 0.0 mm 0 W/m2
22:57 0.8 °C -5.7 °C 1027.4 hPa Calm     62% 0.0 mm 0 W/m2
23:02 0.6 °C -5.6 °C 1027.4 hPa Calm     63% 0.0 mm 0 W/m2
23:07 0.5 °C -5.5 °C 1027.1 hPa Calm     64% 0.0 mm 0 W/m2
23:12 0.4 °C -5.6 °C 1027.1 hPa Calm     64% 0.0 mm 0 W/m2
23:18 0.3 °C -5.9 °C 1027.1 hPa Calm     63% 0.0 mm 0 W/m2
23:23 0.3 °C -5.7 °C 1027.1 hPa Calm   1.6 km/h 64% 0.0 mm 0 W/m2
23:28 0.2 °C -5.6 °C 1027.1 hPa Calm   3.2 km/h 65% 0.0 mm 0 W/m2
23:33 0.1 °C -5.7 °C 1027.1 hPa Calm     65% 0.0 mm 0 W/m2
23:38 0 °C -5.6 °C 1026.8 hPa ESE 1.4 km/h 3.2 km/h 66% 0.0 mm 0 W/m2
23:43 -0.1 °C -5.5 °C 1026.8 hPa Calm   3.2 km/h 67% 0.0 mm 0 W/m2
23:48 -0.2 °C -5.6 °C 1026.8 hPa ESE 1.4 km/h 1.6 km/h 67% 0.0 mm 0 W/m2
23:53 -0.3 °C -5.5 °C 1026.8 hPa ESE 1.4 km/h 3.2 km/h 68% 0.0 mm 0 W/m2
23:58 -0.4 °C -5.4 °C 1026.8 hPa Calm     69% 0.0 mm 0 W/m2
Juneau County Weather
Compliments of Weather Underground - 4 mb